Time;durP1;ratioP1;P1;durP2;ratioP2;P2;SDS_P1;SDS_P2;PMS_P1;PMS_P2;Temp;Humidity;BMP_temperature;BMP_pressure;BME280_temperature;BME280_humidity;BME280_pressure;Samples;Min_cycle;Max_cycle;Signal;HPM_P1;HPM_P2
2022/11/22 00:01:51;;;;;;;;;0.00;0.00;;;;;;;;5070385;28;9352;-90
2022/11/22 00:04:17;;;;;;;;;0.00;0.00;;;;;;;;5075264;28;9414;-91
2022/11/22 00:06:42;;;;;;;;;0.00;0.00;;;;;;;;5075773;28;9308;-90
2022/11/22 00:09:07;;;;;;;;;0.00;0.00;;;;;;;;5075479;28;8837;-91
2022/11/22 00:11:32;;;;;;;;;0.00;0.00;;;;;;;;5095958;28;8821;-90
2022/11/22 00:13:57;;;;;;;;;0.00;0.00;;;;;;;;5077705;28;8806;-91
2022/11/22 00:16:22;;;;;;;;;0.00;0.00;;;;;;;;5073830;28;8921;-92
2022/11/22 00:18:48;;;;;;;;;0.00;0.00;;;;;;;;5074724;28;8810;-91
2022/11/22 00:21:13;;;;;;;;;0.00;0.00;;;;;;;;5075695;28;8803;-92
2022/11/22 00:23:38;;;;;;;;;0.00;0.00;;;;;;;;5075595;28;8849;-90
2022/11/22 00:26:03;;;;;;;;;0.00;0.00;;;;;;;;5075081;28;8891;-91
2022/11/22 00:28:29;;;;;;;;;0.00;0.00;;;;;;;;5094354;28;8799;-91
2022/11/22 00:30:54;;;;;;;;;0.00;0.00;;;;;;;;5069163;28;8796;-90
2022/11/22 00:33:19;;;;;;;;;0.00;0.00;;;;;;;;5054780;28;9146;-91
2022/11/22 00:35:45;;;;;;;;;0.00;0.00;;;;;;;;5055860;28;8785;-90
2022/11/22 00:38:10;;;;;;;;;0.00;0.00;;;;;;;;5055612;28;8835;-91
2022/11/22 00:40:35;;;;;;;;;0.00;0.00;;;;;;;;5069801;28;8823;-90
2022/11/22 00:43:00;;;;;;;;;0.00;0.00;;;;;;;;5081031;28;8823;-90
2022/11/22 00:45:26;;;;;;;;;0.00;0.00;;;;;;;;5110716;28;8922;-91
2022/11/22 00:47:51;;;;;;;;;0.00;0.00;;;;;;;;5075522;28;8841;-90
2022/11/22 00:50:16;;;;;;;;;0.00;0.00;;;;;;;;5093835;28;8823;-91
2022/11/22 00:52:41;;;;;;;;;0.00;0.00;;;;;;;;5075635;28;8811;-91
2022/11/22 00:55:06;;;;;;;;;0.00;0.00;;;;;;;;5075607;28;8825;-91
2022/11/22 00:57:32;;;;;;;;;0.00;0.00;;;;;;;;5076012;28;8803;-91
2022/11/22 00:59:57;;;;;;;;;0.00;0.00;;;;;;;;5075577;28;9195;-92
2022/11/22 01:02:22;;;;;;;;;0.00;0.00;;;;;;;;5075717;28;9549;-91
2022/11/22 01:04:47;;;;;;;;;0.00;0.00;;;;;;;;5075687;28;8783;-91
2022/11/22 01:07:12;;;;;;;;;0.00;0.00;;;;;;;;5075343;28;8803;-91
2022/11/22 01:09:38;;;;;;;;;0.00;0.00;;;;;;;;5074890;28;8810;-91
2022/11/22 01:12:03;;;;;;;;;0.00;0.00;;;;;;;;5075779;28;8849;-92
2022/11/22 01:14:28;;;;;;;;;0.00;0.00;;;;;;;;5074670;28;8798;-92
2022/11/22 01:16:53;;;;;;;;;0.00;0.00;;;;;;;;5061555;28;8854;-90
2022/11/22 01:19:18;;;;;;;;;0.00;0.00;;;;;;;;5051567;28;8900;-89
2022/11/22 01:21:44;;;;;;;;;0.00;0.00;;;;;;;;5051454;28;9178;-90
2022/11/22 01:24:09;;;;;;;;;0.00;0.00;;;;;;;;5051598;28;8865;-91
2022/11/22 01:26:34;;;;;;;;;0.00;0.00;;;;;;;;5051441;28;8795;-91
2022/11/22 01:28:59;;;;;;;;;0.00;0.00;;;;;;;;5051610;28;8830;-91
2022/11/22 01:31:25;;;;;;;;;0.00;0.00;;;;;;;;5050057;28;8933;-90
2022/11/22 01:33:50;;;;;;;;;0.00;0.00;;;;;;;;5051822;28;8807;-91
2022/11/22 01:36:15;;;;;;;;;0.00;0.00;;;;;;;;5052619;28;8917;-91
2022/11/22 01:38:40;;;;;;;;;0.00;0.00;;;;;;;;5051853;28;8857;-92
2022/11/22 01:41:05;;;;;;;;;0.00;0.00;;;;;;;;5051768;28;8889;-91
2022/11/22 01:43:31;;;;;;;;;0.00;0.00;;;;;;;;5052518;28;8880;-91
2022/11/22 01:45:56;;;;;;;;;0.00;0.00;;;;;;;;5052774;28;9344;-92
2022/11/22 01:48:24;;;;;;;;;0.00;0.00;;;;;;;;5050745;28;8897;-91
2022/11/22 01:50:52;;;;;;;;;0.00;0.00;;;;;;;;5050297;28;8791;-92
2022/11/22 01:53:28;;;;;;;;;0.00;0.00;;;;;;;;5050677;28;8795;-91
2022/11/22 01:55:55;;;;;;;;;2.67;2.67;;;;;;;;5050898;28;9689;-91
2022/11/22 01:58:21;;;;;;;;;0.00;0.00;;;;;;;;5049901;28;8783;-91
2022/11/22 02:00:46;;;;;;;;;0.00;0.00;;;;;;;;5050141;28;8819;-91
2022/11/22 02:03:14;;;;;;;;;0.00;0.00;;;;;;;;5051149;28;8791;-91
2022/11/22 02:05:39;;;;;;;;;0.00;0.00;;;;;;;;5051552;28;8837;-89
2022/11/22 02:08:20;;;;;;;;;0.00;0.00;;;;;;;;5050971;28;8807;-91
2022/11/22 02:10:46;;;;;;;;;0.00;0.00;;;;;;;;5051601;28;8795;-91
2022/11/22 02:13:13;;;;;;;;;0.00;0.00;;;;;;;;5051066;28;8814;-91
2022/11/22 02:15:38;;;;;;;;;0.00;0.00;;;;;;;;5050815;28;8866;-91
2022/11/22 02:18:03;;;;;;;;;0.00;0.00;;;;;;;;5089132;28;8791;-91
2022/11/22 02:20:28;;;;;;;;;0.00;0.00;;;;;;;;5091663;28;8834;-91
2022/11/22 02:23:10;;;;;;;;;0.00;0.00;;;;;;;;5073295;28;8806;-91
2022/11/22 02:25:35;;;;;;;;;0.00;0.00;;;;;;;;5073685;28;9701;-91
2022/11/22 02:28:01;;;;;;;;;0.00;0.00;;;;;;;;5091123;28;8833;-91
2022/11/22 02:30:26;;;;;;;;;0.00;0.00;;;;;;;;5071767;28;8917;-91
2022/11/22 02:32:51;;;;;;;;;0.00;0.00;;;;;;;;5052652;28;8815;-91
2022/11/22 02:35:19;;;;;;;;;0.00;0.00;;;;;;;;5053771;28;8911;-91
2022/11/22 02:37:45;;;;;;;;;0.00;0.00;;;;;;;;5084317;28;8790;-91
2022/11/22 02:40:12;;;;;;;;;0.00;0.00;;;;;;;;5073005;28;8884;-91
2022/11/22 02:42:38;;;;;;;;;0.00;0.00;;;;;;;;5072397;28;9562;-91
2022/11/22 02:45:04;;;;;;;;;0.00;0.00;;;;;;;;5075553;28;8810;-92
2022/11/22 02:47:29;;;;;;;;;0.00;0.00;;;;;;;;5073227;28;8819;-92
2022/11/22 02:49:54;;;;;;;;;0.00;0.00;;;;;;;;5073628;28;8822;-92
2022/11/22 02:52:20;;;;;;;;;0.00;0.00;;;;;;;;5073303;28;8806;-91
2022/11/22 02:54:45;;;;;;;;;0.00;0.00;;;;;;;;5072567;28;9639;-91
2022/11/22 02:57:10;;;;;;;;;0.00;0.00;;;;;;;;5073568;28;8795;-91
2022/11/22 02:59:36;;;;;;;;;0.00;0.00;;;;;;;;5072641;28;8822;-91
2022/11/22 03:02:01;;;;;;;;;0.00;0.00;;;;;;;;5072504;28;8811;-90
2022/11/22 03:04:26;;;;;;;;;0.00;0.00;;;;;;;;5072764;28;8822;-91
2022/11/22 03:06:56;;;;;;;;;0.00;0.00;;;;;;;;5072797;28;9569;-91
2022/11/22 03:09:25;;;;;;;;;0.00;0.00;;;;;;;;5072920;28;8795;-91
2022/11/22 03:11:50;;;;;;;;;0.00;0.00;;;;;;;;5069771;28;8862;-91
2022/11/22 03:14:15;;;;;;;;;0.00;0.00;;;;;;;;5055426;28;8838;-92
2022/11/22 03:16:45;;;;;;;;;0.00;0.00;;;;;;;;5072265;28;8909;-90
2022/11/22 03:19:10;;;;;;;;;0.00;0.00;;;;;;;;5072675;28;8791;-91
2022/11/22 03:21:35;;;;;;;;;0.00;0.00;;;;;;;;5072802;28;8826;-91
2022/11/22 03:24:01;;;;;;;;;0.00;0.00;;;;;;;;5072863;28;8814;-91
2022/11/22 03:26:26;;;;;;;;;0.00;0.00;;;;;;;;5073267;28;8913;-91
2022/11/22 03:28:51;;;;;;;;;0.00;0.00;;;;;;;;5072212;28;8802;-91
2022/11/22 03:31:16;;;;;;;;;0.00;0.00;;;;;;;;5090543;28;8798;-91
2022/11/22 03:33:41;;;;;;;;;0.00;0.00;;;;;;;;5071819;28;9286;-91
2022/11/22 03:36:07;;;;;;;;;0.00;0.00;;;;;;;;5072658;28;9069;-91
2022/11/22 03:38:33;;;;;;;;;0.00;0.00;;;;;;;;5072263;28;8810;-91
2022/11/22 03:40:58;;;;;;;;;0.00;0.00;;;;;;;;5072446;28;9354;-92
2022/11/22 03:43:23;;;;;;;;;0.00;0.00;;;;;;;;5072119;28;8823;-91
2022/11/22 03:45:48;;;;;;;;;0.00;0.00;;;;;;;;5074340;28;8814;-91
2022/11/22 03:48:14;;;;;;;;;0.00;0.00;;;;;;;;5071979;28;8895;-91
2022/11/22 03:50:39;;;;;;;;;0.00;0.00;;;;;;;;5090581;28;8856;-90
2022/11/22 03:53:04;;;;;;;;;0.00;0.00;;;;;;;;5090506;28;8900;-91
2022/11/22 03:55:29;;;;;;;;;0.00;0.00;;;;;;;;5075290;28;8807;-91
2022/11/22 03:57:55;;;;;;;;;0.00;0.00;;;;;;;;5075933;28;8867;-91
2022/11/22 04:00:20;;;;;;;;;0.00;0.00;;;;;;;;5074578;28;8865;-91
2022/11/22 04:02:45;;;;;;;;;0.00;0.00;;;;;;;;5074964;28;9431;-90
2022/11/22 04:05:10;;;;;;;;;0.00;0.00;;;;;;;;5075953;28;8864;-91
2022/11/22 04:07:35;;;;;;;;;0.00;0.00;;;;;;;;5075149;28;8806;-91
2022/11/22 04:10:01;;;;;;;;;0.00;0.00;;;;;;;;5075648;28;8880;-91
2022/11/22 04:12:27;;;;;;;;;0.00;0.00;;;;;;;;5075724;28;8911;-90
2022/11/22 04:15:08;;;;;;;;;0.00;0.00;;;;;;;;5074472;28;8818;-91
2022/11/22 04:17:39;;;;;;;;;0.00;0.00;;;;;;;;5093108;28;8794;-90
2022/11/22 04:22:58;;;;;;;;;0.00;0.00;;;;;;;;5092654;28;8752;-90
2022/11/22 04:25:24;;;;;;;;;0.00;0.00;;;;;;;;5075539;28;8783;-91
2022/11/22 04:27:50;;;;;;;;;0.00;0.00;;;;;;;;5075296;28;8807;-91
2022/11/22 04:30:15;;;;;;;;;0.00;0.00;;;;;;;;5092947;28;8865;-91
2022/11/22 04:32:46;;;;;;;;;0.00;0.00;;;;;;;;5074367;28;9445;-91
2022/11/22 04:35:17;;;;;;;;;0.00;0.00;;;;;;;;5076803;28;8898;-91
2022/11/22 04:37:48;;;;;;;;;0.00;0.00;;;;;;;;5074601;28;8884;-90
2022/11/22 04:40:13;;;;;;;;;0.00;0.00;;;;;;;;5093530;28;8795;-91
2022/11/22 04:45:22;;;;;;;;;0.00;0.00;;;;;;;;5092913;28;8891;-91
2022/11/22 04:47:59;;;;;;;;;0.00;0.00;;;;;;;;5074609;28;9708;-91
2022/11/22 04:53:13;;;;;;;;;0.00;0.00;;;;;;;;5094263;28;8763;-91
2022/11/22 04:55:38;;;;;;;;;0.00;0.00;;;;;;;;5074715;28;8818;-91
2022/11/22 04:58:03;;;;;;;;;0.00;0.00;;;;;;;;5074529;28;8802;-91
2022/11/22 05:00:29;;;;;;;;;0.00;0.00;;;;;;;;5092505;28;9566;-91
2022/11/22 05:02:55;;;;;;;;;0.00;0.00;;;;;;;;5074220;28;8813;-91
2022/11/22 05:05:21;;;;;;;;;0.00;0.00;;;;;;;;5073810;28;9535;-90
2022/11/22 05:07:46;;;;;;;;;0.00;0.00;;;;;;;;5074653;28;8811;-91
2022/11/22 05:10:11;;;;;;;;;0.00;0.00;;;;;;;;5092826;28;8888;-91
2022/11/22 05:12:36;;;;;;;;;0.00;0.00;;;;;;;;5092929;28;9287;-91
2022/11/22 05:15:02;;;;;;;;;0.00;0.00;;;;;;;;5073552;28;8900;-91
2022/11/22 05:17:27;;;;;;;;;0.00;0.00;;;;;;;;5074107;28;8837;-91
2022/11/22 05:19:52;;;;;;;;;0.00;0.00;;;;;;;;5074030;28;9574;-90
2022/11/22 05:23:52;;;;;;;;;0.00;0.00;;;;;;;;5076243;28;8826;-91
2022/11/22 05:25:03;;;;;;;;;0.00;0.00;;;;;;;;5092096;28;8779;-91
2022/11/22 05:27:28;;;;;;;;;0.00;0.00;;;;;;;;5074398;28;8787;-90
2022/11/22 05:29:53;;;;;;;;;0.00;0.00;;;;;;;;5092416;28;8782;-90
2022/11/22 05:32:18;;;;;;;;;0.00;0.00;;;;;;;;5091752;28;8803;-91
2022/11/22 05:34:44;;;;;;;;;0.00;0.00;;;;;;;;5073620;28;9014;-91
2022/11/22 05:37:09;;;;;;;;;0.00;0.00;;;;;;;;5092647;28;9371;-91
2022/11/22 05:39:34;;;;;;;;;0.00;0.00;;;;;;;;5092772;28;8823;-90
2022/11/22 05:41:59;;;;;;;;;0.00;0.00;;;;;;;;5092551;28;9201;-91
2022/11/22 05:44:24;;;;;;;;;0.00;0.00;;;;;;;;5073720;28;9344;-91
2022/11/22 05:46:49;;;;;;;;;0.00;0.00;;;;;;;;5073476;28;8795;-91
2022/11/22 05:49:15;;;;;;;;;0.00;0.00;;;;;;;;5073792;28;9321;-90
2022/11/22 05:51:40;;;;;;;;;0.00;0.00;;;;;;;;5074645;28;9542;-89
2022/11/22 05:54:05;;;;;;;;;0.00;0.00;;;;;;;;5092311;28;8852;-90
2022/11/22 05:56:30;;;;;;;;;0.00;0.00;;;;;;;;5074526;28;8791;-91
2022/11/22 05:58:55;;;;;;;;;0.00;0.00;;;;;;;;5061115;28;28461;-90
2022/11/22 06:01:22;;;;;;;;;0.00;0.00;;;;;;;;5070477;28;28582;-90
2022/11/22 06:03:47;;;;;;;;;0.00;0.00;;;;;;;;5049208;28;28487;-91
2022/11/22 06:06:13;;;;;;;;;0.00;0.00;;;;;;;;5033522;28;31199;-90
2022/11/22 06:08:45;;;;;;;;;0.00;0.00;;;;;;;;5033665;28;28737;-91
2022/11/22 06:11:20;;;;;;;;;0.00;0.00;;;;;;;;5034050;28;28370;-91
2022/11/22 06:13:46;;;;;;;;;0.00;0.00;;;;;;;;5070300;28;28414;-90
2022/11/22 06:16:12;;;;;;;;;0.00;0.00;;;;;;;;5053048;28;30219;-91
2022/11/22 06:18:37;;;;;;;;;0.00;0.00;;;;;;;;5052613;28;28906;-91
2022/11/22 06:21:05;;;;;;;;;0.00;0.00;;;;;;;;5053339;28;28543;-91
2022/11/22 06:23:30;;;;;;;;;0.00;0.00;;;;;;;;5053773;28;28486;-90
2022/11/22 06:25:59;;;;;;;;;0.00;0.00;;;;;;;;5053853;28;30121;-91
2022/11/22 06:28:25;;;;;;;;;0.00;0.00;;;;;;;;5071823;28;28416;-91
2022/11/22 06:30:50;;;;;;;;;0.00;0.00;;;;;;;;5052804;28;28874;-91
2022/11/22 06:33:16;;;;;;;;;0.00;0.00;;;;;;;;5071199;28;28398;-92
2022/11/22 06:35:41;;;;;;;;;0.00;0.00;;;;;;;;5072321;28;29405;-91
2022/11/22 06:38:06;;;;;;;;;0.00;0.00;;;;;;;;5053309;28;28762;-92
2022/11/22 06:40:31;;;;;;;;;0.00;0.00;;;;;;;;5053470;28;28396;-92
2022/11/22 06:42:56;;;;;;;;;0.00;0.00;;;;;;;;5052565;28;28448;-91
2022/11/22 06:45:21;;;;;;;;;0.00;0.00;;;;;;;;5052935;28;29658;-90
2022/11/22 06:47:47;;;;;;;;;0.00;0.00;;;;;;;;5070610;28;28720;-90
2022/11/22 06:50:12;;;;;;;;;0.00;0.00;;;;;;;;5071135;28;28445;-90
2022/11/22 06:52:37;;;;;;;;;0.00;0.00;;;;;;;;5053607;28;27918;-90
2022/11/22 06:55:02;;;;;;;;;0.00;0.00;;;;;;;;5053795;28;30219;-90
2022/11/22 06:57:27;;;;;;;;;0.00;0.00;;;;;;;;5053021;28;28950;-90
2022/11/22 06:59:52;;;;;;;;;0.00;0.00;;;;;;;;5052386;28;28558;-90
2022/11/22 07:02:18;;;;;;;;;0.00;0.00;;;;;;;;5052773;28;28481;-91
2022/11/22 07:04:43;;;;;;;;;0.00;0.00;;;;;;;;5053461;28;30264;-90
2022/11/22 07:07:08;;;;;;;;;0.00;0.00;;;;;;;;5053228;28;28819;-90
2022/11/22 07:09:34;;;;;;;;;0.00;0.00;;;;;;;;5070661;28;28528;-90
2022/11/22 07:11:59;;;;;;;;;0.00;0.00;;;;;;;;5071238;28;28394;-90
2022/11/22 07:14:24;;;;;;;;;0.00;0.00;;;;;;;;5070840;28;28394;-90
2022/11/22 07:16:49;;;;;;;;;0.00;0.00;;;;;;;;5052253;28;28535;-90
2022/11/22 07:19:15;;;;;;;;;0.00;0.00;;;;;;;;5052684;28;28790;-90
2022/11/22 07:21:40;;;;;;;;;0.00;0.00;;;;;;;;5052809;28;29147;-92
2022/11/22 07:24:05;;;;;;;;;0.00;0.00;;;;;;;;5052427;28;30329;-90
2022/11/22 07:26:31;;;;;;;;;0.00;0.00;;;;;;;;5070640;28;27942;-89
2022/11/22 07:28:56;;;;;;;;;0.00;0.00;;;;;;;;5070689;28;28548;-89
2022/11/22 07:31:21;;;;;;;;;0.00;0.00;;;;;;;;5054865;28;28589;-86
2022/11/22 07:33:46;;;;;;;;;0.00;0.00;;;;;;;;5074285;28;29407;-89
2022/11/22 07:36:16;;;;;;;;;0.00;0.00;;;;;;;;5074607;28;28543;-88
2022/11/22 07:38:41;;;;;;;;;0.00;0.00;;;;;;;;5069095;28;28861;-85
2022/11/22 07:41:07;;;;;;;;;0.00;0.00;;;;;;;;5079073;28;28362;-85
2022/11/22 07:43:33;;;;;;;;;0.00;0.00;;;;;;;;5093000;27;44705;-85
2022/11/22 07:45:58;;;;;;;;;0.00;0.00;;;;;;;;5091624;28;28409;-85
2022/11/22 07:48:24;;;;;;;;;0.00;0.00;;;;;;;;5093600;28;28476;-85
2022/11/22 07:50:49;;;;;;;;;0.00;0.00;;;;;;;;5081813;28;28371;-85
2022/11/22 07:53:14;;;;;;;;;0.00;0.00;;;;;;;;5073438;28;28512;-85
2022/11/22 07:55:39;;;;;;;;;0.00;0.00;;;;;;;;5054893;28;29231;-84
2022/11/22 07:58:04;;;;;;;;;0.00;0.00;;;;;;;;5055374;28;28502;-85
2022/11/22 08:00:30;;;;;;;;;0.00;0.00;;;;;;;;5053842;28;28416;-85
2022/11/22 08:02:56;;;;;;;;;0.00;0.00;;;;;;;;5050885;28;29301;-83
2022/11/22 08:05:21;;;;;;;;;0.00;0.00;;;;;;;;5046228;28;28586;-85
2022/11/22 08:07:47;;;;;;;;;0.00;0.00;;;;;;;;5053981;28;28478;-84
2022/11/22 08:10:13;;;;;;;;;0.00;0.00;;;;;;;;5060550;28;29353;-85
2022/11/22 08:12:38;;;;;;;;;0.00;0.00;;;;;;;;5064078;28;28461;-85
2022/11/22 08:15:03;;;;;;;;;0.00;0.00;;;;;;;;5050303;28;28564;-85
2022/11/22 08:17:29;;;;;;;;;0.00;0.00;;;;;;;;5053296;28;28545;-86
2022/11/22 08:19:54;;;;;;;;;0.00;0.00;;;;;;;;5050942;28;28599;-85
2022/11/22 08:22:19;;;;;;;;;0.00;0.00;;;;;;;;5062906;28;28435;-84
2022/11/22 08:24:44;;;;;;;;;0.00;0.00;;;;;;;;5053615;28;28669;-86
2022/11/22 08:27:09;;;;;;;;;1.00;1.00;;;;;;;;5064757;28;28464;-86
2022/11/22 08:29:34;;;;;;;;;0.00;0.00;;;;;;;;5055265;28;28522;-86
2022/11/22 08:32:00;;;;;;;;;0.00;0.00;;;;;;;;5047169;28;30769;-86
2022/11/22 08:34:25;;;;;;;;;0.00;0.00;;;;;;;;5043901;28;28898;-84
2022/11/22 08:36:50;;;;;;;;;0.00;0.00;;;;;;;;5049559;28;28511;-88
2022/11/22 08:39:15;;;;;;;;;0.00;0.00;;;;;;;;5048047;28;28641;-85
2022/11/22 08:41:40;;;;;;;;;0.00;0.00;;;;;;;;5065027;28;28543;-86
2022/11/22 08:44:06;;;;;;;;;0.00;0.00;;;;;;;;5048777;28;29692;-84
2022/11/22 08:46:31;;;;;;;;;0.00;0.00;;;;;;;;5050096;28;28602;-84
2022/11/22 08:48:56;;;;;;;;;0.00;0.00;;;;;;;;5070554;28;28426;-84
2022/11/22 08:51:21;;;;;;;;;0.00;0.00;;;;;;;;5049433;28;31508;-85
2022/11/22 08:53:46;;;;;;;;;1.00;1.00;;;;;;;;5052935;28;28515;-84
2022/11/22 08:56:13;;;;;;;;;0.00;0.00;;;;;;;;5064821;28;28393;-85
2022/11/22 08:58:38;;;;;;;;;0.00;0.00;;;;;;;;5071048;28;28559;-85
2022/11/22 09:01:04;;;;;;;;;0.00;0.00;;;;;;;;5057469;28;28561;-86
2022/11/22 09:03:29;;;;;;;;;0.00;0.00;;;;;;;;5046647;28;28787;-85
2022/11/22 09:05:59;;;;;;;;;0.00;0.00;;;;;;;;5069882;28;28611;-84
2022/11/22 09:08:24;;;;;;;;;0.00;0.00;;;;;;;;5066666;28;28478;-84
2022/11/22 09:10:49;;;;;;;;;0.00;0.00;;;;;;;;5070283;28;28453;-86
2022/11/22 09:13:15;;;;;;;;;0.00;0.00;;;;;;;;5046304;28;30147;-84
2022/11/22 09:15:40;;;;;;;;;0.00;0.00;;;;;;;;5067866;28;28575;-83
2022/11/22 09:18:05;;;;;;;;;0.00;0.00;;;;;;;;5067977;28;28485;-84
2022/11/22 09:20:30;;;;;;;;;0.00;0.00;;;;;;;;5047402;28;29940;-83
2022/11/22 09:22:55;;;;;;;;;0.00;0.00;;;;;;;;5051722;28;29837;-88
2022/11/22 09:25:21;;;;;;;;;0.00;0.00;;;;;;;;5070699;28;28514;-87
2022/11/22 09:27:46;;;;;;;;;0.00;0.00;;;;;;;;5046595;28;28936;-87
2022/11/22 09:30:11;;;;;;;;;0.00;0.00;;;;;;;;5070156;28;28430;-89
2022/11/22 09:32:36;;;;;;;;;0.00;0.00;;;;;;;;5049662;28;28544;-87
2022/11/22 09:35:02;;;;;;;;;0.00;0.00;;;;;;;;5060730;28;28336;-87
2022/11/22 09:37:27;;;;;;;;;0.00;0.00;;;;;;;;5054059;28;28535;-89
2022/11/22 09:39:52;;;;;;;;;0.00;0.00;;;;;;;;5052504;28;30317;-89
2022/11/22 09:42:17;;;;;;;;;0.00;0.00;;;;;;;;5052743;28;29204;-90
2022/11/22 09:44:42;;;;;;;;;0.00;0.00;;;;;;;;5065663;28;28544;-88
2022/11/22 09:47:23;;;;;;;;;0.00;0.00;;;;;;;;5067799;28;28462;-89
2022/11/22 09:49:48;;;;;;;;;0.00;0.00;;;;;;;;5053021;28;28440;-89
2022/11/22 09:52:31;;;;;;;;;0.00;0.00;;;;;;;;5077223;28;28323;-88
2022/11/22 09:54:58;;;;;;;;;0.00;0.00;;;;;;;;5067253;28;28537;-89
2022/11/22 09:57:26;;;;;;;;;0.00;0.00;;;;;;;;5051753;28;28300;-89
2022/11/22 10:00:13;;;;;;;;;0.00;0.00;;;;;;;;5054041;28;30142;-87
2022/11/22 10:02:40;;;;;;;;;0.00;0.00;;;;;;;;5056834;28;28004;-91
2022/11/22 10:05:14;;;;;;;;;0.00;0.00;;;;;;;;5045386;28;28413;-92
2022/11/22 10:07:42;;;;;;;;;0.00;0.00;;;;;;;;5069103;28;28570;-93
2022/11/22 10:10:13;;;;;;;;;0.00;0.00;;;;;;;;5069099;28;28461;-88
2022/11/22 10:12:46;;;;;;;;;0.00;0.00;;;;;;;;5040476;28;29569;-90
2022/11/22 10:15:40;;;;;;;;;1.00;1.00;;;;;;;;5055969;28;28571;-96
2022/11/22 10:18:15;;;;;;;;;0.00;0.00;;;;;;;;5045277;28;28587;-93
2022/11/22 10:20:41;;;;;;;;;0.00;0.00;;;;;;;;5073456;28;28381;-90
2022/11/22 10:23:13;;;;;;;;;0.00;0.00;;;;;;;;5087330;28;9588;-91
2022/11/22 10:25:40;;;;;;;;;0.00;0.00;;;;;;;;5085685;28;8787;-89
2022/11/22 10:28:25;;;;;;;;;0.00;0.00;;;;;;;;5058277;28;24875;-92
2022/11/22 10:31:02;;;;;;;;;0.00;0.00;;;;;;;;5057811;28;27930;-87
2022/11/22 10:33:35;;;;;;;;;0.00;0.00;;;;;;;;5049774;28;28556;-89
2022/11/22 10:36:19;;;;;;;;;1.00;1.00;;;;;;;;5060891;28;45236;-88
2022/11/22 10:38:44;;;;;;;;;0.00;0.00;;;;;;;;5058080;28;28471;-89
2022/11/22 10:41:18;;;;;;;;;0.00;0.00;;;;;;;;5063541;28;44723;-89
2022/11/22 10:43:57;;;;;;;;;0.00;0.00;;;;;;;;5076029;28;27798;-91
2022/11/22 10:46:22;;;;;;;;;0.00;0.00;;;;;;;;5071319;28;27900;-90
2022/11/22 10:48:50;;;;;;;;;0.00;0.00;;;;;;;;5071738;28;28339;-89
2022/11/22 10:51:21;;;;;;;;;0.00;0.00;;;;;;;;5074871;28;28513;-90
2022/11/22 10:53:58;;;;;;;;;0.00;0.00;;;;;;;;5086431;28;28571;-91
2022/11/22 10:56:45;;;;;;;;;0.00;0.00;;;;;;;;5059402;28;28474;-91
2022/11/22 10:59:20;;;;;;;;;0.00;0.00;;;;;;;;5056058;28;27926;-93
2022/11/22 11:01:53;;;;;;;;;0.00;0.00;;;;;;;;5073583;28;28620;-92
2022/11/22 11:04:18;;;;;;;;;0.00;0.00;;;;;;;;5049841;28;28555;-92
2022/11/22 11:06:52;;;;;;;;;0.00;0.00;;;;;;;;5052165;28;28492;-91
2022/11/22 11:09:22;;;;;;;;;0.00;0.00;;;;;;;;5068390;28;28692;-91
2022/11/22 11:11:49;;;;;;;;;0.00;0.00;;;;;;;;5070009;28;28647;-91
2022/11/22 11:14:24;;;;;;;;;0.00;0.00;;;;;;;;5049699;28;28541;-89
2022/11/22 11:16:50;;;;;;;;;0.00;0.00;;;;;;;;5076779;28;29559;-89
2022/11/22 11:19:20;;;;;;;;;0.00;0.00;;;;;;;;5055326;28;39638;-89
2022/11/22 11:21:52;;;;;;;;;0.00;0.00;;;;;;;;5057235;28;30434;-89
2022/11/22 11:24:18;;;;;;;;;0.00;0.00;;;;;;;;5074195;28;29573;-88
2022/11/22 11:26:50;;;;;;;;;0.00;0.00;;;;;;;;5072131;28;28477;-88
2022/11/22 11:29:15;;;;;;;;;0.00;0.00;;;;;;;;5052129;28;28585;-89
2022/11/22 11:31:48;;;;;;;;;0.00;0.00;;;;;;;;5060755;28;28533;-90
2022/11/22 11:34:21;;;;;;;;;0.00;0.00;;;;;;;;5071865;28;28564;-89
2022/11/22 11:36:47;;;;;;;;;0.00;0.00;;;;;;;;5058826;28;36237;-88
2022/11/22 11:39:19;;;;;;;;;0.00;0.00;;;;;;;;5093059;28;14046;-86
2022/11/22 11:41:46;;;;;;;;;0.00;0.00;;;;;;;;5072457;28;8961;-87
2022/11/22 11:44:24;;;;;;;;;0.00;0.00;;;;;;;;5074004;28;8774;-88
2022/11/22 11:46:50;;;;;;;;;0.00;0.00;;;;;;;;5064590;28;8802;-87
2022/11/22 11:49:16;;;;;;;;;0.00;0.00;;;;;;;;5087626;28;8879;-92
2022/11/22 11:52:07;;;;;;;;;0.00;0.00;;;;;;;;5063295;28;9922;-87
2022/11/22 11:54:45;;;;;;;;;0.00;0.00;;;;;;;;5052542;28;8841;-89
2022/11/22 11:57:13;;;;;;;;;0.00;0.00;;;;;;;;5072383;28;10245;-87
2022/11/22 11:59:38;;;;;;;;;0.00;0.00;;;;;;;;5071439;28;11959;-84
2022/11/22 12:02:10;;;;;;;;;0.00;0.00;;;;;;;;5066757;28;8807;-90
2022/11/22 12:04:45;;;;;;;;;0.00;0.00;;;;;;;;5087235;28;9494;-89
2022/11/22 12:07:17;;;;;;;;;0.00;0.00;;;;;;;;5066476;28;8790;-91
2022/11/22 12:09:44;;;;;;;;;0.00;0.00;;;;;;;;5087570;28;8814;-92
2022/11/22 12:12:22;;;;;;;;;0.00;0.00;;;;;;;;5089454;28;8779;-91
2022/11/22 12:14:51;;;;;;;;;0.00;0.00;;;;;;;;5088223;28;9562;-94
2022/11/22 12:17:29;;;;;;;;;0.00;0.00;;;;;;;;5074298;28;8888;-92
2022/11/22 12:20:06;;;;;;;;;1.00;0.00;;;;;;;;5089550;28;8944;-94
2022/11/22 12:22:51;;;;;;;;;0.00;0.00;;;;;;;;5071618;28;8931;-90
2022/11/22 12:25:16;;;;;;;;;0.00;0.00;;;;;;;;4989629;28;8822;-90
2022/11/22 12:27:41;;;;;;;;;0.00;0.00;;;;;;;;4980537;28;45556;-90
2022/11/22 12:30:10;;;;;;;;;0.00;0.00;;;;;;;;4988907;28;28765;-89
2022/11/22 12:32:39;;;;;;;;;0.00;0.00;;;;;;;;4984660;28;29387;-91
2022/11/22 12:35:10;;;;;;;;;0.00;0.00;;;;;;;;4968965;28;28992;-88
2022/11/22 12:37:41;;;;;;;;;0.00;0.00;;;;;;;;4963577;28;30550;-91
2022/11/22 12:40:13;;;;;;;;;0.00;0.00;;;;;;;;4975945;28;28655;-90
2022/11/22 12:42:39;;;;;;;;;0.00;0.00;;;;;;;;4970226;28;31074;-88
2022/11/22 12:45:09;;;;;;;;;0.00;0.00;;;;;;;;4967686;28;29085;-89
2022/11/22 12:47:38;;;;;;;;;0.00;0.00;;;;;;;;4977073;28;29643;-90
2022/11/22 12:50:08;;;;;;;;;0.00;0.00;;;;;;;;4979942;28;28513;-90
2022/11/22 12:52:54;;;;;;;;;0.00;0.00;;;;;;;;4969112;28;29314;-89
2022/11/22 12:55:23;;;;;;;;;0.00;0.00;;;;;;;;4979716;28;28647;-90
2022/11/22 12:57:49;;;;;;;;;0.00;0.00;;;;;;;;4972340;28;28570;-92
2022/11/22 13:00:14;;;;;;;;;0.00;0.00;;;;;;;;4977915;28;28457;-90
2022/11/22 13:02:44;;;;;;;;;0.00;0.00;;;;;;;;5022257;28;29823;-91
2022/11/22 13:05:14;;;;;;;;;0.00;0.00;;;;;;;;5072172;28;28538;-91
2022/11/22 13:07:51;;;;;;;;;0.00;0.00;;;;;;;;5045428;28;28429;-91
2022/11/22 13:10:43;;;;;;;;;0.00;0.00;;;;;;;;5050434;28;29108;-88
2022/11/22 13:13:16;;;;;;;;;0.00;0.00;;;;;;;;4967041;28;28524;-88
2022/11/22 13:15:43;;;;;;;;;0.00;0.00;;;;;;;;4970936;28;28140;-93
2022/11/22 13:18:09;;;;;;;;;0.00;0.00;;;;;;;;4958315;28;28537;-93
2022/11/22 13:20:37;;;;;;;;;0.00;0.00;;;;;;;;4961123;28;28687;-94
2022/11/22 13:23:05;;;;;;;;;0.00;0.00;;;;;;;;4977184;28;28504;-93
2022/11/22 13:25:40;;;;;;;;;1.00;1.00;;;;;;;;4958922;28;29546;-93
2022/11/22 13:28:10;;;;;;;;;0.00;0.00;;;;;;;;4970007;28;28847;-93
2022/11/22 13:30:37;;;;;;;;;0.00;0.00;;;;;;;;4972359;28;28606;-93
2022/11/22 13:33:03;;;;;;;;;0.00;0.00;;;;;;;;4974374;28;28804;-95
2022/11/22 13:35:35;;;;;;;;;0.00;0.00;;;;;;;;4958612;28;28828;-93
2022/11/22 13:38:12;;;;;;;;;2.00;0.67;;;;;;;;4960159;28;28875;-94
2022/11/22 13:40:40;;;;;;;;;0.00;0.00;;;;;;;;4968414;28;28664;-91
2022/11/22 13:43:12;;;;;;;;;0.00;0.00;;;;;;;;4956982;28;29807;-93
2022/11/22 13:45:53;;;;;;;;;0.00;0.00;;;;;;;;4972620;28;28485;-93
2022/11/22 13:48:37;;;;;;;;;0.00;0.00;;;;;;;;4971873;28;28508;-96
2022/11/22 13:51:02;;;;;;;;;0.00;0.00;;;;;;;;5033183;28;28461;-96
2022/11/22 13:53:29;;;;;;;;;0.00;0.00;;;;;;;;5031997;28;29663;-91
2022/11/22 13:55:55;;;;;;;;;0.00;0.00;;;;;;;;5040614;28;29506;-92
2022/11/22 13:58:23;;;;;;;;;0.00;0.00;;;;;;;;5032231;28;28936;-94
2022/11/22 14:00:53;;;;;;;;;0.00;0.00;;;;;;;;5038982;28;28389;-91
2022/11/22 14:03:21;;;;;;;;;0.00;0.00;;;;;;;;5031052;28;28564;-91
2022/11/22 14:05:47;;;;;;;;;4.67;4.67;;;;;;;;5042184;28;27866;-90
2022/11/22 14:08:25;;;;;;;;;0.00;0.00;;;;;;;;5038663;28;27952;-92
2022/11/22 14:10:50;;;;;;;;;0.00;0.00;;;;;;;;5030135;28;28403;-94
2022/11/22 14:13:30;;;;;;;;;0.00;0.00;;;;;;;;5030118;28;28520;-92
2022/11/22 14:15:56;;;;;;;;;0.00;0.00;;;;;;;;5026612;28;28847;-93
2022/11/22 14:18:40;;;;;;;;;0.00;0.00;;;;;;;;5024263;28;28412;-96
2022/11/22 14:21:14;;;;;;;;;0.00;0.00;;;;;;;;5020141;28;28534;-92
2022/11/22 14:23:50;;;;;;;;;0.00;0.00;;;;;;;;5030385;28;30424;-92
2022/11/22 14:26:24;;;;;;;;;0.00;0.00;;;;;;;;5022557;28;29869;-92
2022/11/22 14:28:56;;;;;;;;;0.00;0.00;;;;;;;;5027031;28;28409;-93
2022/11/22 14:31:24;;;;;;;;;0.00;0.00;;;;;;;;5029242;28;28499;-92
2022/11/22 14:34:08;;;;;;;;;0.00;0.00;;;;;;;;5030566;28;28689;-91
2022/11/22 14:36:33;;;;;;;;;0.00;0.00;;;;;;;;5029733;28;29844;-91
2022/11/22 14:38:59;;;;;;;;;0.00;0.00;;;;;;;;5033127;28;28841;-92
2022/11/22 14:41:27;;;;;;;;;0.00;0.00;;;;;;;;5033745;28;28435;-91
2022/11/22 14:44:03;;;;;;;;;0.00;0.00;;;;;;;;5034821;28;30416;-90
2022/11/22 14:46:37;;;;;;;;;0.00;0.00;;;;;;;;5027193;28;28501;-92
2022/11/22 14:49:16;;;;;;;;;0.00;0.00;;;;;;;;5025351;28;28387;-92
2022/11/22 14:51:42;;;;;;;;;0.00;0.00;;;;;;;;5028657;28;28722;-92
2022/11/22 14:54:23;;;;;;;;;0.00;0.00;;;;;;;;5028050;28;31243;-91
2022/11/22 14:56:49;;;;;;;;;0.00;0.00;;;;;;;;5037633;28;28733;-92
2022/11/22 14:59:32;;;;;;;;;0.00;0.00;;;;;;;;5031409;28;28790;-92
2022/11/22 15:02:16;;;;;;;;;0.00;0.00;;;;;;;;5030327;28;28445;-92